Aviation Digital Data Service (ADDS)

Output produced by METARs form (0946 UTC 26 May 2019)
found at http://www.aviationweather.gov/metar/data/
 
KIAD 260918Z 2609/2712 25004KT 5SM BR FEW020 SCT250 
     FM261200 28008KT P6SM SCT050 BKN250 
     FM262100 29009KT P6SM -SHRA VCTS SCT045CB BKN200 
     FM270000 31007KT P6SM SCT050 BKN150 
     FM270900 31004KT 4SM BR SCT020 OVC060